Time;durP1;ratioP1;P1;durP2;ratioP2;P2;SDS_P1;SDS_P2;PMS_P1;PMS_P2;Temp;Humidity;BMP_temperature;BMP_pressure;BME280_temperature;BME280_humidity;BME280_pressure;Samples;Min_cycle;Max_cycle;Signal;HPM_P1;HPM_P2
2022/12/23 00:00:52;;;;;;;;;;;;;;;7.44;100.00;99536.53;6245675;23;20019;-76
2022/12/23 00:03:57;;;;;;;11.65;8.38;;;;;;;7.41;100.00;99520.25;6244493;23;19921;-76
2022/12/23 00:07:01;;;;;;;12.75;8.43;;;;;;;7.56;100.00;99524.63;6245386;23;20066;-76
2022/12/23 00:10:04;;;;;;;11.48;7.97;;;;;;;7.39;100.00;99529.91;6245155;23;20023;-76
2022/12/23 00:16:34;;;;;;;11.70;7.68;;;;;;;7.63;100.00;99520.75;6226124;23;20443;-76
2022/12/23 00:19:37;;;;;;;12.40;7.35;;;;;;;7.51;100.00;99525.78;6244831;23;20094;-76
2022/12/23 00:26:06;;;;;;;14.30;9.85;;;;;;;7.66;100.00;99549.19;6230963;23;20490;-76
2022/12/23 00:29:09;;;;;;;16.50;11.65;;;;;;;7.56;100.00;99549.75;6244886;23;20087;-76
2022/12/23 00:32:41;;;;;;;;;;;;;;;7.55;100.00;99548.94;6246202;23;20026;-76
2022/12/23 00:35:45;;;;;;;9.80;5.70;;;;;;;7.70;99.70;99539.44;6243675;23;19934;-76
2022/12/23 00:45:35;;;;;;;9.82;7.38;;;;;;;7.46;100.00;99552.03;6244654;23;20086;-76
2022/12/23 00:52:06;;;;;;;9.68;6.55;;;;;;;7.45;100.00;99560.78;6244550;23;20023;-75
2022/12/23 00:55:09;;;;;;;11.35;7.22;;;;;;;7.54;100.00;99552.47;6244141;23;20027;-75
2022/12/23 00:58:13;;;;;;;;;;;;;;;7.53;100.00;99549.94;6245271;23;20066;-75
2022/12/23 01:08:11;;;;;;;14.02;9.57;;;;;;;7.55;100.00;99568.91;6242942;23;20023;-75
2022/12/23 01:11:14;;;;;;;12.00;7.72;;;;;;;7.59;100.00;99563.44;6244379;23;20073;-75
2022/12/23 01:14:18;;;;;;;11.27;7.53;;;;;;;7.36;100.00;99569.91;6244414;23;20027;-75
2022/12/23 01:17:21;;;;;;;11.38;6.97;;;;;;;7.26;100.00;99571.34;6244072;23;20026;-75
2022/12/23 01:20:25;;;;;;;10.40;5.70;;;;;;;7.31;100.00;99586.72;6244511;23;20034;-75
2022/12/23 01:23:28;;;;;;;8.20;5.20;;;;;;;7.23;100.00;99587.94;6244105;23;20026;-75
2022/12/23 01:26:31;;;;;;;8.85;6.22;;;;;;;7.45;100.00;99590.22;6243509;23;20027;-75
2022/12/23 01:29:34;;;;;;;;;;;;;;;7.45;100.00;99605.00;6246570;22;20105;-75
2022/12/23 01:32:38;;;;;;;7.95;5.40;;;;;;;7.49;100.00;99616.91;6246787;23;19961;-75
2022/12/23 01:35:41;;;;;;;;;;;;;;;7.52;100.00;99631.50;6228659;23;20146;-76
2022/12/23 01:38:45;;;;;;;7.10;4.80;;;;;;;7.52;100.00;99634.94;6246655;23;19914;-76
2022/12/23 01:45:28;;;;;;;7.43;4.50;;;;;;;7.33;100.00;99634.25;6247034;23;20517;-76
2022/12/23 01:48:31;;;;;;;7.18;4.50;;;;;;;7.34;100.00;99631.59;6226878;23;20023;-76
2022/12/23 01:51:35;;;;;;;7.75;4.38;;;;;;;7.49;100.00;99642.06;6246011;23;20403;-75
2022/12/23 01:54:38;;;;;;;9.13;4.72;;;;;;;7.57;100.00;99640.75;6246667;23;20051;-75
2022/12/23 01:57:43;;;;;;;8.23;4.75;;;;;;;7.46;100.00;99638.72;6246051;23;20074;-75
2022/12/23 02:04:16;;;;;;;6.63;4.35;;;;;;;7.62;100.00;99658.69;6246088;23;20074;-75
2022/12/23 02:11:14;;;;;;;6.68;4.57;;;;;;;7.42;100.00;99657.16;6246439;23;20628;-75
2022/12/23 02:18:16;;;;;;;8.35;4.93;;;;;;;7.49;100.00;99663.72;6246019;23;20027;-75
2022/12/23 02:21:28;;;;;;;8.07;5.85;;;;;;;7.52;100.00;99679.16;6246400;23;20019;-75
2022/12/23 02:24:37;;;;;;;14.23;9.73;;;;;;;7.55;100.00;99671.19;6246344;23;20031;-75
2022/12/23 02:28:19;;;;;;;12.05;7.80;;;;;;;7.52;100.00;99678.34;6245196;23;20376;-75
2022/12/23 02:31:50;;;;;;;8.98;4.60;;;;;;;7.64;100.00;99680.28;6245502;23;20027;-75
2022/12/23 02:35:07;;;;;;;10.90;6.70;;;;;;;7.69;99.78;99688.69;6215390;23;20027;-75
2022/12/23 02:38:19;;;;;;;9.52;6.15;;;;;;;7.52;100.00;99686.97;6246094;23;20050;-75
2022/12/23 02:41:28;;;;;;;8.10;4.82;;;;;;;7.47;100.00;99686.41;6245950;23;20081;-75
2022/12/23 02:44:57;;;;;;;5.97;3.95;;;;;;;7.42;100.00;99683.19;6245676;22;20065;-76
2022/12/23 02:48:06;;;;;;;8.80;5.40;;;;;;;7.34;100.00;99664.53;6246013;23;20388;-76
2022/12/23 02:51:12;;;;;;;6.60;4.25;;;;;;;7.44;100.00;99660.53;6245641;23;20537;-76
2022/12/23 02:54:23;;;;;;;8.32;4.30;;;;;;;7.34;100.00;99664.53;6245450;23;20035;-76
2022/12/23 02:57:34;;;;;;;6.93;4.47;;;;;;;7.51;100.00;99677.50;6246255;23;20050;-76
2022/12/23 03:00:40;;;;;;;7.90;4.07;;;;;;;7.64;100.00;99672.47;6245981;23;20023;-75
2022/12/23 03:03:45;;;;;;;6.07;4.40;;;;;;;7.59;100.00;99675.31;6246426;23;20030;-75
2022/12/23 03:06:52;;;;;;;4.72;2.80;;;;;;;7.54;100.00;99672.13;6246162;23;20340;-75
2022/12/23 03:10:07;;;;;;;4.78;3.22;;;;;;;7.38;100.00;99677.31;6246016;23;20026;-75
2022/12/23 03:13:20;;;;;;;5.18;3.35;;;;;;;7.50;100.00;99672.34;6246326;23;20058;-76
2022/12/23 03:16:54;;;;;;;5.30;3.30;;;;;;;7.53;100.00;99665.25;6245806;23;20502;-76
2022/12/23 03:20:42;;;;;;;6.43;3.42;;;;;;;7.45;100.00;99672.63;6245480;23;20030;-76
2022/12/23 03:24:04;;;;;;;6.93;3.72;;;;;;;7.50;100.00;99683.63;6245122;23;20023;-75
2022/12/23 03:27:16;;;;;;;4.80;3.40;;;;;;;7.40;100.00;99672.00;6245577;22;20070;-75
2022/12/23 03:30:21;;;;;;;5.15;3.10;;;;;;;7.27;100.00;99696.97;6244323;23;20066;-75
2022/12/23 03:33:30;;;;;;;6.40;4.35;;;;;;;7.45;100.00;99699.47;6245887;23;20022;-76
2022/12/23 03:36:40;;;;;;;7.28;4.32;;;;;;;7.51;100.00;99713.91;6245753;23;20027;-75
2022/12/23 03:39:51;;;;;;;5.70;3.58;;;;;;;7.26;100.00;99714.34;6245987;23;20082;-75
2022/12/23 03:43:04;;;;;;;5.82;3.10;;;;;;;7.39;100.00;99706.75;6245261;23;20019;-76
2022/12/23 03:46:17;;;;;;;4.65;2.92;;;;;;;7.47;100.00;99699.41;6245672;22;20027;-76
2022/12/23 03:49:27;;;;;;;5.10;2.72;;;;;;;7.41;100.00;99697.94;6245379;22;20039;-76
2022/12/23 03:52:37;;;;;;;3.88;2.78;;;;;;;7.29;100.00;99706.38;6245744;23;20027;-76
2022/12/23 03:55:49;;;;;;;5.53;3.03;;;;;;;7.26;100.00;99719.53;6245224;23;20496;-77
2022/12/23 03:58:59;;;;;;;5.82;2.63;;;;;;;7.13;100.00;99724.53;6245264;23;20081;-76
2022/12/23 04:02:06;;;;;;;8.30;2.83;;;;;;;7.10;100.00;99729.88;6245693;23;20104;-76
2022/12/23 04:05:15;;;;;;;5.93;2.47;;;;;;;7.08;100.00;99730.88;6245223;23;20054;-76
2022/12/23 04:08:26;;;;;;;5.68;2.60;;;;;;;7.21;100.00;99722.41;6245119;23;20398;-76
2022/12/23 04:11:30;;;;;;;11.68;3.42;;;;;;;7.15;100.00;99734.88;6245285;23;20085;-76
2022/12/23 04:14:34;;;;;;;7.55;3.13;;;;;;;7.01;100.00;99719.94;6245220;23;20383;-76
2022/12/23 04:17:37;;;;;;;20.13;4.05;;;;;;;6.94;100.00;99734.19;6244854;23;20026;-76
2022/12/23 04:20:40;;;;;;;7.18;3.30;;;;;;;6.93;99.85;99741.13;6215300;23;20403;-76
2022/12/23 04:23:43;;;;;;;37.92;4.05;;;;;;;6.99;100.00;99730.44;6196471;23;20044;-76
2022/12/23 04:26:47;;;;;;;48.40;4.75;;;;;;;6.89;100.00;99726.63;6214109;23;20467;-76
2022/12/23 04:29:50;;;;;;;;;;;;;;;6.72;99.56;99724.00;6215171;23;20104;-76
2022/12/23 04:32:53;;;;;;;17.20;3.73;;;;;;;6.82;100.00;99730.41;6215020;23;19997;-76
2022/12/23 04:35:58;;;;;;;;;;;;;;;6.79;100.00;99734.94;6215728;23;20027;-76
2022/12/23 04:39:01;;;;;;;25.90;5.40;;;;;;;6.82;100.00;99734.78;6215052;23;19962;-76
2022/12/23 04:42:04;;;;;;;;;;;;;;;6.81;100.00;99743.50;6197082;23;20340;-76
2022/12/23 04:45:08;;;;;;;21.48;5.32;;;;;;;6.79;100.00;99740.13;6215138;23;19915;-76
2022/12/23 04:48:11;;;;;;;34.00;7.07;;;;;;;6.86;100.00;99744.97;6214765;23;20031;-76
2022/12/23 04:51:17;;;;;;;13.70;7.63;;;;;;;6.79;100.00;99747.91;6214089;23;20459;-77
2022/12/23 04:54:21;;;;;;;12.73;6.35;;;;;;;6.91;100.00;99745.56;6214407;23;20027;-77
2022/12/23 04:57:24;;;;;;;11.00;6.32;;;;;;;6.86;100.00;99752.75;6213135;23;20078;-76
2022/12/23 05:00:27;;;;;;;;;;;;;;;6.83;99.73;99741.66;6213165;23;20474;-76
2022/12/23 05:03:31;;;;;;;24.27;17.00;;;;;;;6.88;100.00;99743.13;6212438;23;19919;-76
2022/12/23 05:06:35;;;;;;;25.40;14.25;;;;;;;6.83;99.43;99754.63;6213835;23;20506;-76
2022/12/23 05:09:38;;;;;;;23.42;8.60;;;;;;;6.86;99.32;99755.34;6212442;23;20043;-76
2022/12/23 05:12:41;;;;;;;;;;;;;;;6.81;99.28;99764.28;6213756;23;20086;-76
2022/12/23 05:15:45;;;;;;;11.35;7.28;;;;;;;7.01;99.38;99763.28;6213654;23;19966;-76
2022/12/23 05:18:48;;;;;;;11.52;6.50;;;;;;;7.01;99.50;99755.50;6228188;23;20031;-76
2022/12/23 05:21:54;;;;;;;;;;;;;;;6.86;99.16;99752.75;6245574;23;20078;-76
2022/12/23 05:24:58;;;;;;;9.82;5.88;;;;;;;6.83;99.57;99746.84;6244476;23;20319;-76
2022/12/23 05:28:02;;;;;;;8.73;4.47;;;;;;;6.84;98.99;99761.53;6226723;23;20027;-75
2022/12/23 05:31:07;;;;;;;9.23;6.15;;;;;;;6.75;100.00;99765.41;6245512;23;20392;-75
2022/12/23 05:34:10;;;;;;;15.10;6.78;;;;;;;6.79;100.00;99763.50;6245500;23;20074;-75
2022/12/23 05:37:13;;;;;;;19.02;6.60;;;;;;;6.77;100.00;99773.16;6244741;23;20030;-75
2022/12/23 05:40:17;;;;;;;;;;;;;;;6.63;100.00;99769.44;6245564;23;20348;-76
2022/12/23 05:43:20;;;;;;;;;;;;;;;6.83;100.00;99758.09;6245769;23;19915;-76
2022/12/23 05:46:24;;;;;;;7.40;4.53;;;;;;;6.89;100.00;99756.94;6245192;23;19954;-76
2022/12/23 05:49:27;;;;;;;;;;;;;;;6.95;100.00;99757.47;6244975;23;20077;-76
2022/12/23 05:52:31;;;;;;;;;;;;;;;6.93;99.58;99766.28;6226532;23;19923;-76
2022/12/23 05:55:35;;;;;;;6.13;4.60;;;;;;;6.93;100.00;99766.28;6245441;23;19914;-77
2022/12/23 05:58:38;;;;;;;7.25;4.38;;;;;;;6.84;100.00;99766.75;6244919;22;20027;-76
2022/12/23 06:02:06;;;;;;;;;;;;;;;;;;;;;
2022/12/23 06:05:11;;;;;;;6.43;3.92;;;;;;;7.03;98.34;99770.13;6239793;23;19956;-76
2022/12/23 06:08:44;;;;;;;5.43;3.55;;;;;;;6.89;98.55;99778.59;6220976;23;20050;-77
2022/12/23 06:12:38;;;;;;;7.63;4.60;;;;;;;6.75;100.00;99792.25;6238292;23;20027;-76
2022/12/23 06:15:45;;;;;;;5.45;4.22;;;;;;;6.72;100.00;99794.97;6240805;23;20099;-76
2022/12/23 06:18:53;;;;;;;5.30;3.80;;;;;;;6.69;100.00;99807.28;6238952;23;20359;-77
2022/12/23 06:21:57;;;;;;;6.05;3.92;;;;;;;6.72;100.00;99794.97;6240476;23;20031;-76
2022/12/23 06:25:00;;;;;;;;;;;;;;;6.82;99.85;99812.72;6240954;23;20087;-77
2022/12/23 06:28:04;;;;;;;8.18;3.35;;;;;;;6.80;100.00;99814.59;6238684;23;19914;-76
2022/12/23 06:31:31;;;;;;;9.40;5.68;;;;;;;6.86;100.00;99819.47;6236820;23;20466;-76
2022/12/23 06:34:59;;;;;;;8.75;4.10;;;;;;;6.81;99.39;99817.09;6237658;23;20107;-75
2022/12/23 06:38:02;;;;;;;7.05;3.83;;;;;;;6.82;99.34;99820.53;6237969;23;20052;-78
2022/12/23 06:41:06;;;;;;;;;;;;;;;6.96;98.01;99828.50;6239975;23;20015;-76
2022/12/23 06:44:50;;;;;;;;;;;;;;;6.85;98.55;99830.78;6239174;23;19914;-78
2022/12/23 06:48:30;;;;;;;12.27;8.30;;;;;;;7.14;97.70;99831.97;6239145;23;19914;-80
2022/12/23 06:51:36;;;;;;;10.63;7.28;;;;;;;7.13;98.09;99818.13;6238460;23;20094;-79
2022/12/23 06:54:39;;;;;;;10.52;4.97;;;;;;;7.05;98.20;99814.22;6237873;23;20070;-78
2022/12/23 06:57:43;;;;;;;;;;;;;;;6.72;99.89;99817.53;6239515;23;20399;-79
2022/12/23 07:00:47;;;;;;;7.07;4.45;;;;;;;6.65;100.00;99811.78;6220274;23;19914;-78
2022/12/23 07:03:52;;;;;;;9.60;5.20;;;;;;;6.96;99.59;99799.94;6240842;23;20026;-79
2022/12/23 07:06:56;;;;;;;8.27;5.65;;;;;;;6.87;100.00;99795.19;6238638;22;20279;-78
2022/12/23 07:16:16;;;;;;;9.23;3.83;;;;;;;6.93;99.50;99815.66;6189967;22;19944;-78
2022/12/23 07:19:19;;;;;;;5.85;3.92;;;;;;;7.02;98.75;99802.22;6238017;23;20258;-78
2022/12/23 07:22:23;;;;;;;;;;;;;;;7.02;98.49;99807.44;6220170;23;20085;-78
2022/12/23 07:25:26;;;;;;;7.80;4.07;;;;;;;6.82;98.65;99808.38;6221531;23;19958;-75
2022/12/23 07:28:32;;;;;;;11.25;3.97;;;;;;;6.58;100.00;99822.56;6220522;23;20070;-77
2022/12/23 07:31:36;;;;;;;7.03;4.00;;;;;;;6.93;98.66;99836.47;6239885;23;20019;-77
2022/12/23 07:34:39;;;;;;;7.40;4.53;;;;;;;6.73;99.42;99847.78;6239246;23;20146;-77
2022/12/23 07:37:43;;;;;;;7.88;4.70;;;;;;;6.82;98.39;99854.31;6239078;23;20027;-76
2022/12/23 07:40:57;;;;;;;6.40;4.70;;;;;;;6.80;99.05;99859.59;6220419;23;20027;-75
2022/12/23 07:44:13;;;;;;;9.88;3.92;;;;;;;6.94;98.29;99864.97;6239214;23;20502;-76
2022/12/23 07:47:22;;;;;;;8.90;5.13;;;;;;;6.95;98.62;99855.41;6239483;23;20350;-76
2022/12/23 07:50:27;;;;;;;5.53;4.03;;;;;;;6.91;97.98;99865.09;6239041;23;20470;-76
2022/12/23 07:53:33;;;;;;;7.22;3.80;;;;;;;6.68;98.91;99863.59;6239082;23;20043;-77
2022/12/23 07:56:36;;;;;;;6.00;4.32;;;;;;;6.77;99.72;99845.91;6237871;23;20406;-77
2022/12/23 07:59:39;;;;;;;6.45;4.18;;;;;;;6.79;98.42;99844.06;6239137;23;20031;-76
2022/12/23 08:02:44;;;;;;;5.60;4.53;;;;;;;6.98;98.27;99839.66;6239160;23;20027;-77
2022/12/23 08:05:57;;;;;;;5.80;4.32;;;;;;;6.87;98.50;99827.19;6239677;23;20100;-77
2022/12/23 08:09:00;;;;;;;10.50;7.38;;;;;;;6.97;98.14;99827.59;6239258;23;20027;-76
2022/12/23 08:12:04;;;;;;;7.15;4.53;;;;;;;6.82;99.02;99833.53;6239866;23;20450;-75
2022/12/23 08:15:08;;;;;;;;;;;;;;;6.78;100.00;99839.78;6241981;22;20225;-76
2022/12/23 08:18:11;;;;;;;12.30;6.47;;;;;;;6.89;100.00;99834.91;6222401;23;20003;-76
2022/12/23 09:14:32;;;;;;;15.38;11.00;;;;;;;7.13;100.00;99828.53;6240288;23;20352;-76
2022/12/23 09:22:01;;;;;;;18.10;13.18;;;;;;;7.20;99.57;99842.91;6203714;23;20027;-76
2022/12/23 09:26:16;;;;;;;22.65;16.20;;;;;;;6.98;100.00;99830.09;6224795;23;20027;-76
2022/12/23 09:29:18;;;;;;;23.20;13.27;;;;;;;6.90;100.00;99821.00;6241317;22;20405;-76
2022/12/23 09:32:25;;;;;;;22.23;14.15;;;;;;;7.12;100.00;99826.00;6222274;23;20035;-76
2022/12/23 09:35:32;;;;;;;21.75;16.38;;;;;;;7.09;100.00;99829.59;6242741;23;20355;-74
2022/12/23 09:39:25;;;;;;;22.23;15.50;;;;;;;7.26;100.00;99825.31;6236682;23;20022;-74
2022/12/23 09:42:57;;;;;;;18.45;12.20;;;;;;;7.31;100.00;99826.78;6241271;23;20094;-74
2022/12/23 09:46:36;;;;;;;18.80;12.90;;;;;;;7.55;100.00;99839.47;6243371;23;20031;-74
2022/12/23 09:50:41;;;;;;;;;;;;;;;;;;;;;
2022/12/23 09:54:17;;;;;;;26.95;16.55;;;;;;;7.41;100.00;99817.59;6239842;23;20023;-76
2022/12/23 10:14:44;;;;;;;43.70;33.00;;;;;;;7.59;100.00;99799.34;6123902;23;20029;-74
2022/12/23 10:17:56;;;;;;;37.25;23.35;;;;;;;7.61;100.00;99800.97;6180020;23;20031;-75
2022/12/23 10:21:09;;;;;;;27.00;18.48;;;;;;;7.54;100.00;99806.56;6246373;23;20027;-76
2022/12/23 10:24:45;;;;;;;24.63;16.65;;;;;;;7.73;100.00;99790.84;6246138;23;20023;-75
2022/12/23 10:27:53;;;;;;;35.25;20.35;;;;;;;7.67;100.00;99787.63;6222948;23;20023;-74
2022/12/23 11:32:13;;;;;;;29.67;22.48;;;;;;;7.89;100.00;99656.38;6275182;22;20386;-74
2022/12/23 11:52:18;;;;;;;23.98;18.17;;;;;;;8.06;100.00;99609.41;6084260;23;20061;-74
2022/12/23 12:31:01;;;;;;;34.50;25.92;;;;;;;8.08;100.00;99542.47;6084234;23;20101;-75
2022/12/23 12:40:54;;;;;;;13.30;11.95;;;;;;;8.24;100.00;99507.75;6238745;23;20464;-75
2022/12/23 12:45:33;;;;;;;12.25;10.95;;;;;;;8.19;100.00;99501.94;6086949;23;20073;-74
2022/12/23 13:02:51;;;;;;;16.10;14.40;;;;;;;8.34;100.00;99483.66;6212820;23;20071;-75
2022/12/23 13:06:20;;;;;;;18.40;16.60;;;;;;;8.38;100.00;99471.31;6211951;23;20059;-74
2022/12/23 13:38:58;;;;;;;19.45;17.38;;;;;;;8.20;100.00;99420.28;5951552;24;20077;-74
2022/12/23 13:42:03;;;;;;;17.23;15.43;;;;;;;8.20;100.00;99405.53;6183615;23;20028;-75
2022/12/23 13:45:33;;;;;;;12.88;11.15;;;;;;;8.26;100.00;99404.28;6183779;23;20395;-74
2022/12/23 16:05:22;;;;;;;24.42;17.80;;;;;;;8.44;100.00;99327.66;6233569;22;20033;-75
2022/12/23 16:08:27;;;;;;;13.25;10.98;;;;;;;8.43;100.00;99312.16;6245518;23;20396;-76
2022/12/23 16:11:41;;;;;;;7.93;7.00;;;;;;;8.49;100.00;99312.59;6245669;23;20019;-76
2022/12/23 16:14:59;;;;;;;10.65;8.95;;;;;;;8.51;100.00;99315.94;6245307;23;20030;-76
2022/12/23 16:18:24;;;;;;;7.97;7.07;;;;;;;8.46;100.00;99317.16;6227326;23;20031;-74
2022/12/23 16:21:52;;;;;;;7.80;6.22;;;;;;;8.45;100.00;99325.91;6244867;23;20354;-74
2022/12/23 16:25:27;;;;;;;6.60;5.88;;;;;;;8.49;100.00;99325.63;6244996;23;20026;-77
2022/12/23 16:28:40;;;;;;;14.93;13.50;;;;;;;8.67;100.00;99322.78;6213231;23;20038;-81
2022/12/23 16:31:43;;;;;;;22.95;16.52;;;;;;;8.54;100.00;99326.16;6214028;23;20027;-77
2022/12/23 16:34:50;;;;;;;16.90;14.60;;;;;;;8.56;100.00;99324.31;6213687;23;20031;-78
2022/12/23 16:38:11;;;;;;;17.23;8.10;;;;;;;8.29;100.00;99311.19;6212636;23;20401;-77
2022/12/23 16:41:15;;;;;;;9.95;7.00;;;;;;;8.30;100.00;99327.69;6215217;23;20520;-75
2022/12/23 16:44:19;;;;;;;14.98;13.48;;;;;;;8.25;100.00;99334.94;6196890;23;20096;-77
2022/12/23 16:47:22;;;;;;;;;;;;;;;8.29;100.00;99331.19;6215898;23;20465;-76
2022/12/23 16:50:26;;;;;;;12.07;8.57;;;;;;;8.33;100.00;99338.75;6215510;23;19954;-77
2022/12/23 16:53:29;;;;;;;11.00;8.57;;;;;;;8.49;100.00;99341.25;6215393;23;20080;-76
2022/12/23 16:56:34;;;;;;;;;;;;;;;8.54;100.00;99336.56;6215888;23;20031;-77
2022/12/23 16:59:39;;;;;;;11.90;9.45;;;;;;;8.48;100.00;99341.34;6215280;23;19958;-78
2022/12/23 17:02:44;;;;;;;13.30;9.02;;;;;;;8.47;100.00;99342.28;6214954;23;20070;-77
2022/12/23 17:05:47;;;;;;;13.50;10.25;;;;;;;8.40;100.00;99349.63;6215000;23;20082;-75
2022/12/23 17:08:52;;;;;;;;;;;;;;;8.45;100.00;99344.97;6216051;23;20075;-77
2022/12/23 17:11:56;;;;;;;15.68;10.80;;;;;;;8.25;100.00;99350.53;6215028;23;19973;-76
2022/12/23 17:14:59;;;;;;;14.70;9.38;;;;;;;8.31;100.00;99358.00;6212485;23;20498;-77
2022/12/23 17:18:03;;;;;;;10.75;8.10;;;;;;;8.43;100.00;99365.09;6214963;23;20027;-76
2022/12/23 17:21:17;;;;;;;11.93;9.13;;;;;;;8.39;100.00;99371.38;6214957;23;20023;-78
2022/12/23 17:24:23;;;;;;;14.05;9.05;;;;;;;8.29;100.00;99384.09;6215342;23;20071;-78
2022/12/23 17:27:28;;;;;;;8.38;6.53;;;;;;;8.32;100.00;99393.50;6214409;23;20108;-77
2022/12/23 17:30:31;;;;;;;10.32;7.00;;;;;;;8.43;100.00;99390.28;6215267;23;20023;-78
2022/12/23 17:33:36;;;;;;;8.23;6.63;;;;;;;8.47;100.00;99392.59;6215372;23;20059;-80
2022/12/23 17:36:39;;;;;;;15.48;8.75;;;;;;;8.64;100.00;99403.75;6215143;23;20474;-79
2022/12/23 17:39:44;;;;;;;10.40;6.20;;;;;;;9.21;100.00;99396.63;6215204;23;20536;-81
2022/12/23 17:42:48;;;;;;;7.47;2.20;;;;;;;10.04;100.00;99396.34;6215164;23;20022;-81
2022/12/23 17:45:51;;;;;;;4.43;1.48;;;;;;;10.32;100.00;99403.16;6215095;23;20022;-80
2022/12/23 17:48:57;;;;;;;;;;;;;;;10.31;100.00;99411.97;6214997;23;20096;-81
2022/12/23 17:52:05;;;;;;;4.63;2.25;;;;;;;10.63;100.00;99407.09;6212341;23;20237;-80
2022/12/23 17:55:22;;;;;;;13.18;9.73;;;;;;;10.86;100.00;99413.31;6196053;23;20031;-80
2022/12/23 17:58:25;;;;;;;8.90;4.20;;;;;;;10.67;100.00;99415.56;6214893;23;20361;-80
2022/12/23 18:01:31;;;;;;;4.30;1.48;;;;;;;10.80;100.00;99423.38;6214814;23;20039;-80
2022/12/23 18:04:35;;;;;;;8.10;1.65;;;;;;;10.64;100.00;99428.84;6214832;23;20480;-79
2022/12/23 18:07:38;;;;;;;7.30;3.50;;;;;;;10.70;100.00;99431.03;6214906;23;20027;-80
2022/12/23 18:10:42;;;;;;;10.73;6.07;;;;;;;10.48;100.00;99448.19;6214827;23;20028;-81
2022/12/23 18:13:46;;;;;;;15.13;6.18;;;;;;;10.42;100.00;99440.78;6215435;23;20071;-79
2022/12/23 18:16:49;;;;;;;4.90;2.35;;;;;;;10.48;100.00;99437.75;6198195;23;20592;-80
2022/12/23 18:19:54;;;;;;;5.28;1.70;;;;;;;10.53;100.00;99442.66;6216511;23;20028;-80
2022/12/23 18:22:58;;;;;;;4.00;1.85;;;;;;;10.92;96.16;99444.25;6216611;23;20468;-81
2022/12/23 18:26:02;;;;;;;9.60;2.95;;;;;;;10.72;97.26;99463.16;6216462;23;20078;-81
2022/12/23 18:29:08;;;;;;;10.43;5.18;;;;;;;10.65;96.57;99467.09;6216542;23;20026;-78
2022/12/23 18:32:27;;;;;;;10.13;5.35;;;;;;;10.72;94.59;99481.44;6181185;23;20099;-77
2022/12/23 18:35:37;;;;;;;8.05;2.97;;;;;;;11.04;91.07;99478.31;6216435;23;20469;-78
2022/12/23 18:38:40;;;;;;;11.60;4.03;;;;;;;10.98;91.14;99489.25;6216742;23;20023;-77
2022/12/23 18:41:44;;;;;;;14.05;5.90;;;;;;;10.84;91.59;99484.97;6215224;23;20027;-79
2022/12/23 18:44:47;;;;;;;4.72;2.00;;;;;;;10.83;90.96;99489.38;6216014;23;20027;-78
2022/12/23 18:47:51;;;;;;;8.82;2.85;;;;;;;10.91;89.70;99489.69;6216170;23;20076;-78
2022/12/23 18:50:54;;;;;;;8.32;2.92;;;;;;;10.90;90.46;99487.16;6216585;23;20390;-77
2022/12/23 18:53:58;;;;;;;;;;;;;;;10.79;89.42;99490.53;6217112;23;20075;-79
2022/12/23 18:57:02;;;;;;;6.13;2.78;;;;;;;10.70;91.19;99493.78;6216561;23;20253;-77
2022/12/23 19:00:11;;;;;;;12.40;4.35;;;;;;;10.74;90.36;99502.25;6198104;23;20141;-79
2022/12/23 19:03:29;;;;;;;11.18;3.10;;;;;;;10.54;92.33;99503.63;6216522;23;20027;-78
2022/12/23 19:06:33;;;;;;;7.93;2.25;;;;;;;10.43;93.93;99518.25;6197725;23;20027;-78
2022/12/23 19:09:36;;;;;;;10.73;3.13;;;;;;;10.36;94.00;99522.19;6216450;23;20108;-78
2022/12/23 19:12:42;;;;;;;8.45;2.58;;;;;;;10.31;95.71;99534.75;6216294;23;20465;-76
2022/12/23 19:15:46;;;;;;;10.48;2.58;;;;;;;10.48;92.51;99531.84;6216420;23;20028;-78
2022/12/23 19:18:51;;;;;;;9.35;2.30;;;;;;;10.39;93.71;99535.06;6216342;23;20063;-77
2022/12/23 19:21:55;;;;;;;10.13;2.60;;;;;;;10.37;94.33;99544.81;6216150;23;20062;-79
2022/12/23 19:24:58;;;;;;;7.38;2.20;;;;;;;10.41;91.62;99538.41;6216104;23;20027;-82
2022/12/23 19:28:01;;;;;;;;;;;;;;;10.41;92.53;99533.19;6216726;23;20022;-81
2022/12/23 19:31:15;;;;;;;12.70;2.67;;;;;;;10.36;92.74;99531.81;6216111;23;19918;-84
2022/12/23 19:34:19;;;;;;;8.15;2.92;;;;;;;10.37;93.23;99531.75;6215998;23;20032;-83
2022/12/23 19:37:22;;;;;;;;;;;;;;;10.27;93.51;99533.28;6216641;23;20105;-83
2022/12/23 19:40:26;;;;;;;7.50;2.08;;;;;;;10.22;94.76;99532.72;6216091;23;19914;-83
2022/12/23 19:43:29;;;;;;;10.27;2.35;;;;;;;10.31;93.13;99532.16;6216037;23;20489;-84
2022/12/23 19:46:34;;;;;;;12.25;3.08;;;;;;;10.24;94.02;99531.69;6197476;23;20027;-83
2022/12/23 19:49:37;;;;;;;9.90;2.20;;;;;;;10.18;93.57;99536.50;6197707;23;20028;-83
2022/12/23 19:52:43;;;;;;;12.32;2.85;;;;;;;10.19;93.47;99528.53;6216273;23;20338;-86
2022/12/23 19:56:14;;;;;;;10.75;2.30;;;;;;;10.29;91.76;99536.63;6215907;23;20078;-87
2022/12/23 19:59:20;;;;;;;12.60;2.92;;;;;;;10.29;93.03;99534.00;6215941;23;20023;-86
2022/12/23 20:03:41;;;;;;;;;;;;;;;;;;;;;
2022/12/23 20:07:09;;;;;;;13.45;2.97;;;;;;;10.35;90.59;99559.75;6152990;23;20028;-87
2022/12/23 20:11:02;;;;;;;16.98;3.50;;;;;;;10.91;84.64;99573.38;6062199;23;20036;-85
2022/12/23 20:14:11;;;;;;;16.23;4.05;;;;;;;10.82;85.35;99578.41;6186792;23;20039;-85
2022/12/23 20:18:38;;;;;;;;;;;;;;;;;;;;;
2022/12/23 20:21:46;;;;;;;14.55;3.10;;;;;;;10.93;83.96;99597.63;6214739;23;20043;-84
2022/12/23 20:24:50;;;;;;;14.45;4.75;;;;;;;10.97;83.17;99597.41;6215701;23;20074;-84
2022/12/23 20:27:54;;;;;;;15.02;3.47;;;;;;;11.07;81.97;99608.91;6215694;23;20022;-82
2022/12/23 20:31:06;;;;;;;11.30;3.50;;;;;;;11.04;82.09;99603.88;6215608;23;20066;-85
2022/12/23 20:34:18;;;;;;;12.63;3.30;;;;;;;11.03;81.52;99589.16;6214125;23;20489;-85
2022/12/23 20:37:22;;;;;;;13.98;4.13;;;;;;;11.01;81.76;99630.25;6215547;23;20079;-82
2022/12/23 20:40:26;;;;;;;;;;;;;;;11.07;80.25;99638.56;6216136;23;20078;-81
2022/12/23 20:43:33;;;;;;;15.77;4.07;;;;;;;10.97;81.08;99626.19;6215526;23;19930;-81
2022/12/23 20:46:37;;;;;;;13.50;2.65;;;;;;;10.97;79.63;99628.78;6215601;23;20024;-83
2022/12/23 20:49:43;;;;;;;11.25;2.88;;;;;;;11.11;78.91;99620.84;6215417;23;20123;-82
2022/12/23 20:52:53;;;;;;;10.82;3.00;;;;;;;11.03;79.07;99623.16;6245421;23;20023;-81
2022/12/23 20:56:08;;;;;;;11.45;2.53;;;;;;;11.09;78.38;99643.66;6227337;23;20524;-81
2022/12/23 20:59:11;;;;;;;10.27;2.70;;;;;;;11.12;77.62;99633.81;6245708;23;20023;-81
2022/12/23 21:02:15;;;;;;;;;;;;;;;11.13;76.42;99651.19;6246222;23;20070;-82
2022/12/23 21:05:18;;;;;;;;;;;;;;;11.05;76.31;99644.81;6245983;23;19958;-83
2022/12/23 21:08:21;;;;;;;15.57;3.47;;;;;;;10.95;76.48;99647.22;6245786;23;19919;-82
2022/12/23 21:11:29;;;;;;;12.88;2.50;;;;;;;11.01;74.89;99672.09;6245674;23;20085;-83
2022/12/23 21:14:32;;;;;;;10.30;2.28;;;;;;;11.17;72.94;99667.53;6245670;23;20103;-81
2022/12/23 21:17:35;;;;;;;;;;;;;;;11.03;73.87;99675.47;6246199;23;20098;-81
2022/12/23 21:20:39;;;;;;;12.60;2.38;;;;;;;11.14;72.07;99686.88;6245582;23;19958;-81
2022/12/23 21:23:42;;;;;;;10.43;2.30;;;;;;;11.29;70.64;99677.13;6245615;23;20062;-81
2022/12/23 21:26:45;;;;;;;;;;;;;;;11.27;71.28;99673.81;6227394;23;20052;-80
2022/12/23 21:29:48;;;;;;;11.55;2.25;;;;;;;11.17;71.38;99694.53;6245642;23;19914;-81
2022/12/23 21:32:52;;;;;;;12.10;2.55;;;;;;;11.13;71.75;99685.19;6245543;23;20115;-81
2022/12/23 21:35:55;;;;;;;10.23;2.38;;;;;;;11.11;71.89;99683.66;6245469;23;20367;-81
2022/12/23 21:38:59;;;;;;;;;;;;;;;11.03;72.36;99681.53;6246115;23;20023;-81
2022/12/23 21:42:02;;;;;;;15.45;2.83;;;;;;;10.97;72.48;99696.81;6245595;23;19961;-81
2022/12/23 21:45:06;;;;;;;;;;;;;;;11.03;72.00;99704.25;6247529;23;20100;-81
2022/12/23 21:48:09;;;;;;;8.40;1.80;;;;;;;11.03;72.28;99706.84;6247604;23;19956;-82
2022/12/23 21:51:15;;;;;;;14.25;2.55;;;;;;;10.93;72.61;99717.09;6247496;23;20026;-81
2022/12/23 21:54:17;;;;;;;9.40;2.22;;;;;;;11.06;71.36;99725.81;6247545;23;20077;-81
2022/12/23 21:57:21;;;;;;;16.30;4.78;;;;;;;11.06;71.44;99715.34;6247568;23;20099;-81
2022/12/23 22:00:24;;;;;;;14.98;4.63;;;;;;;11.00;71.69;99717.53;6246505;23;20421;-81
2022/12/23 22:03:28;;;;;;;;;;;;;;;11.03;71.33;99727.78;6247957;23;20019;-80
2022/12/23 22:06:38;;;;;;;13.63;3.80;;;;;;;11.11;71.18;99715.03;6247376;23;19958;-79